createdAt,value
2023-02-03T00:02:07.532Z,99820.63
2023-02-03T00:04:34.214Z,99826.69
2023-02-03T00:07:00.978Z,99818.56
2023-02-03T00:09:27.765Z,99815.91
2023-02-03T00:11:54.832Z,99815.03
2023-02-03T00:14:21.423Z,99813.66
2023-02-03T00:16:48.141Z,99814.25
2023-02-03T00:19:17.127Z,99809.91
2023-02-03T00:21:44.056Z,99806.81
2023-02-03T00:24:11.651Z,99804.22
2023-02-03T00:26:43.318Z,99808.56
2023-02-03T00:29:09.956Z,99806.13
2023-02-03T00:31:36.790Z,99801.44
2023-02-03T00:34:03.524Z,99804.44
2023-02-03T00:36:30.215Z,99796.13
2023-02-03T00:38:56.933Z,99790.63
2023-02-03T00:41:28.407Z,99796.22
2023-02-03T00:43:55.008Z,99788.66
2023-02-03T00:46:21.616Z,99776.69
2023-02-03T00:48:48.306Z,99769.13
2023-02-03T00:51:14.936Z,99761.72
2023-02-03T00:53:41.580Z,99759.13
2023-02-03T00:56:12.632Z,99756.31
2023-02-03T00:58:42.425Z,99748.50
2023-02-03T01:01:09.406Z,99750.69
2023-02-03T01:03:36.062Z,99741.28
2023-02-03T01:06:29.195Z,99736.75
2023-02-03T01:08:55.887Z,99730.16
2023-02-03T01:11:25.120Z,99725.03
2023-02-03T01:13:54.293Z,99716.47
2023-02-03T01:16:22.731Z,99705.69
2023-02-03T01:18:50.586Z,99702.09
2023-02-03T01:21:21.022Z,99695.53
2023-02-03T01:23:48.112Z,99695.72
2023-02-03T01:26:17.151Z,99690.22
2023-02-03T01:28:43.864Z,99685.78
2023-02-03T01:31:18.011Z,99676.19
2023-02-03T01:33:48.704Z,99667.09
2023-02-03T01:36:17.179Z,99656.38
2023-02-03T01:38:45.273Z,99660.19
2023-02-03T01:41:18.480Z,99644.34
2023-02-03T01:43:50.449Z,99647.47
2023-02-03T01:46:39.754Z,99648.56
2023-02-03T01:49:14.382Z,99644.91
2023-02-03T01:51:43.405Z,99651.22
2023-02-03T01:54:13.640Z,99644.75
2023-02-03T01:56:44.317Z,99642.19
2023-02-03T01:59:12.137Z,99641.16
2023-02-03T02:01:39.084Z,99629.78
2023-02-03T02:04:06.566Z,99625.69
2023-02-03T02:06:33.309Z,99617.84
2023-02-03T02:09:01.623Z,99614.06
2023-02-03T02:11:29.886Z,99606.28
2023-02-03T02:14:00.216Z,99601.34
2023-02-03T02:16:37.417Z,99589.78
2023-02-03T02:19:09.996Z,99587.03
2023-02-03T02:21:54.754Z,99580.78
2023-02-03T02:24:26.986Z,99573.28
2023-02-03T02:27:11.893Z,99576.69
2023-02-03T02:30:00.393Z,99583.53
2023-02-03T02:32:45.714Z,99554.50
2023-02-03T02:35:35.075Z,99567.38
2023-02-03T02:38:34.626Z,99549.66
2023-02-03T02:41:04.218Z,99538.78
2023-02-03T02:43:43.290Z,99538.56
2023-02-03T02:46:18.858Z,99531.00
2023-02-03T02:49:18.076Z,99517.06
2023-02-03T02:51:48.510Z,99512.59
2023-02-03T02:54:20.704Z,99511.47
2023-02-03T02:56:51.464Z,99498.03
2023-02-03T02:59:18.150Z,99485.63
2023-02-03T03:01:45.689Z,99482.00
2023-02-03T03:04:16.652Z,99466.84
2023-02-03T03:06:50.808Z,99469.31
2023-02-03T03:09:44.226Z,99460.41
2023-02-03T03:12:19.081Z,99458.69
2023-02-03T03:14:50.435Z,99445.06
2023-02-03T03:17:26.317Z,99448.38
2023-02-03T03:19:56.400Z,99450.91
2023-02-03T03:22:28.791Z,99435.19
2023-02-03T03:25:05.772Z,99438.72
2023-02-03T03:27:41.518Z,99440.75
2023-02-03T03:30:13.852Z,99446.06
2023-02-03T03:32:40.812Z,99439.22
2023-02-03T03:35:07.976Z,99437.25
2023-02-03T03:37:45.421Z,99434.03
2023-02-03T03:40:14.812Z,99440.75
2023-02-03T03:42:47.375Z,99441.19
2023-02-03T03:45:26.868Z,99440.69
2023-02-03T03:48:17.568Z,99438.59
2023-02-03T03:50:47.259Z,99435.03
2023-02-03T03:53:16.835Z,99429.09
2023-02-03T03:55:48.875Z,99425.06
2023-02-03T03:58:26.366Z,99422.88
2023-02-03T04:00:55.962Z,99411.00
2023-02-03T04:03:28.308Z,99407.38
2023-02-03T04:05:54.918Z,99387.41
2023-02-03T04:08:21.543Z,99373.22
2023-02-03T04:10:48.186Z,99363.19
2023-02-03T04:13:16.102Z,99348.22
2023-02-03T04:15:42.770Z,99351.22
2023-02-03T04:18:12.061Z,99343.22
2023-02-03T04:20:38.872Z,99352.06
2023-02-03T04:23:05.927Z,99343.53
2023-02-03T04:25:32.550Z,99338.41
2023-02-03T04:27:59.299Z,99335.84
2023-02-03T04:30:26.461Z,99341.09
2023-02-03T04:32:53.891Z,99343.56
2023-02-03T04:35:20.702Z,99336.25
2023-02-03T04:37:47.295Z,99330.59
2023-02-03T04:40:13.891Z,99338.25
2023-02-03T04:42:41.414Z,99340.13
2023-02-03T04:45:10.037Z,99343.59
2023-02-03T04:47:37.706Z,99330.03
2023-02-03T04:50:05.158Z,99322.69
2023-02-03T04:52:31.792Z,99332.13
2023-02-03T04:54:58.798Z,99327.81
2023-02-03T04:57:25.489Z,99327.09
2023-02-03T04:59:52.048Z,99338.47
2023-02-03T05:02:18.660Z,99334.84
2023-02-03T05:04:45.218Z,99331.72
2023-02-03T05:07:12.074Z,99315.63
2023-02-03T05:09:38.683Z,99320.09
2023-02-03T05:12:05.508Z,99315.38
2023-02-03T05:14:32.085Z,99313.97
2023-02-03T05:16:58.805Z,99299.16
2023-02-03T05:19:25.440Z,99313.47
2023-02-03T05:21:52.004Z,99304.47
2023-02-03T05:24:18.583Z,99296.03
2023-02-03T05:26:45.235Z,99286.31
2023-02-03T05:29:11.883Z,99291.66
2023-02-03T05:31:38.623Z,99282.69
2023-02-03T05:34:05.245Z,99280.88
2023-02-03T05:36:31.902Z,99263.91
2023-02-03T05:38:58.929Z,99282.34
2023-02-03T05:41:44.168Z,99280.66
2023-02-03T05:44:10.800Z,99281.38
2023-02-03T05:46:37.399Z,99278.47
2023-02-03T05:49:03.967Z,99269.50
2023-02-03T05:51:30.612Z,99278.34
2023-02-03T05:53:57.193Z,99291.81
2023-02-03T05:56:23.913Z,99298.56
2023-02-03T05:58:53.248Z,99285.75
2023-02-03T06:01:19.988Z,99283.22
2023-02-03T06:03:48.178Z,99285.16
2023-02-03T06:06:15.852Z,99282.34
2023-02-03T06:08:43.185Z,99286.72
2023-02-03T06:11:10.064Z,99297.16
2023-02-03T06:13:36.842Z,99289.03
2023-02-03T06:16:03.639Z,99277.53
2023-02-03T06:18:30.967Z,99265.03
2023-02-03T06:20:57.551Z,99270.25
2023-02-03T06:23:24.110Z,99260.81
2023-02-03T06:25:52.394Z,99245.75
2023-02-03T06:28:19.317Z,99242.16
2023-02-03T06:30:49.243Z,99236.44
2023-02-03T06:33:15.908Z,99263.00
2023-02-03T06:35:42.506Z,99237.41
2023-02-03T06:38:09.166Z,99246.72
2023-02-03T06:40:35.730Z,99244.81
2023-02-03T06:43:02.333Z,99239.00
2023-02-03T06:45:29.011Z,99238.00
2023-02-03T06:47:55.666Z,99221.03
2023-02-03T06:50:22.296Z,99218.00
2023-02-03T06:52:49.677Z,99203.69
2023-02-03T06:55:16.299Z,99201.03
2023-02-03T06:57:44.866Z,99200.03
2023-02-03T07:00:15.042Z,99190.97
2023-02-03T07:02:43.267Z,99200.88
2023-02-03T07:05:10.656Z,99190.22
2023-02-03T07:07:39.564Z,99190.34
2023-02-03T07:10:07.348Z,99181.50
2023-02-03T07:12:34.089Z,99181.38
2023-02-03T07:15:00.725Z,99170.31
2023-02-03T07:17:27.299Z,99157.84
2023-02-03T07:19:54.321Z,99162.47
2023-02-03T07:22:20.887Z,99167.66
2023-02-03T07:24:47.547Z,99166.69
2023-02-03T07:27:14.110Z,99164.75
2023-02-03T07:29:40.885Z,99162.09
2023-02-03T07:32:07.626Z,99173.94
2023-02-03T07:34:34.377Z,99173.94
2023-02-03T07:37:00.961Z,99169.78
2023-02-03T07:39:27.924Z,99168.81
2023-02-03T07:41:54.623Z,99171.88
2023-02-03T07:44:22.836Z,99154.16
2023-02-03T07:46:49.509Z,99149.09
2023-02-03T07:49:16.268Z,99154.41
2023-02-03T07:51:42.839Z,99143.88
2023-02-03T07:54:09.522Z,99146.56
2023-02-03T07:56:36.110Z,99134.28
2023-02-03T07:59:03.463Z,99128.47
2023-02-03T08:01:31.379Z,99138.44
2023-02-03T08:03:58.245Z,99133.34
2023-02-03T08:06:25.420Z,99130.94
2023-02-03T08:08:54.090Z,99128.38
2023-02-03T08:11:20.707Z,99125.84
2023-02-03T08:13:47.357Z,99117.38
2023-02-03T08:16:14.056Z,99123.44
2023-02-03T08:18:40.776Z,99119.06
2023-02-03T08:21:07.376Z,99121.84
2023-02-03T08:23:34.025Z,99121.72
2023-02-03T08:26:00.652Z,99126.13
2023-02-03T08:28:27.283Z,99112.66
2023-02-03T08:30:53.897Z,99105.00
2023-02-03T08:33:20.539Z,99120.31
2023-02-03T08:35:49.605Z,99114.22
2023-02-03T08:38:16.581Z,99109.72
2023-02-03T08:40:43.536Z,99111.47
2023-02-03T08:43:11.241Z,99110.47
2023-02-03T08:45:40.298Z,99111.31
2023-02-03T08:48:07.165Z,99096.41
2023-02-03T08:50:33.982Z,99092.78
2023-02-03T08:53:00.569Z,99094.72
2023-02-03T08:55:27.290Z,99086.72
2023-02-03T08:57:54.000Z,99094.72
2023-02-03T09:00:20.999Z,99093.03
2023-02-03T09:02:47.609Z,99092.88
2023-02-03T09:05:15.916Z,99102.84
2023-02-03T09:07:42.609Z,99103.81
2023-02-03T09:10:09.644Z,99087.69
2023-02-03T09:12:36.294Z,99087.69
2023-02-03T09:15:03.055Z,99074.34
2023-02-03T09:17:29.635Z,99069.03
2023-02-03T09:19:56.323Z,99059.19
2023-02-03T09:22:22.967Z,99064.66
2023-02-03T09:24:51.317Z,99053.16
2023-02-03T09:27:18.037Z,99046.97
2023-02-03T09:29:44.852Z,99038.84
2023-02-03T09:32:13.169Z,99038.84
2023-02-03T09:34:41.371Z,99040.38
2023-02-03T09:37:08.959Z,99037.84
2023-02-03T09:39:35.630Z,99022.59
2023-02-03T09:42:08.229Z,99021.63
2023-02-03T09:45:21.194Z,98994.81
2023-02-03T09:47:54.030Z,98978.66
2023-02-03T09:50:25.138Z,98972.50
2023-02-03T09:52:52.756Z,98965.47
2023-02-03T09:55:43.127Z,98967.28
2023-02-03T09:58:22.999Z,98960.13
2023-02-03T10:01:05.138Z,98959.16
2023-02-03T10:03:48.341Z,98955.50
2023-02-03T10:06:24.057Z,98958.31
2023-02-03T10:09:16.912Z,98953.44
2023-02-03T10:11:57.031Z,98948.81
2023-02-03T10:14:42.337Z,98939.72
2023-02-03T10:17:33.474Z,98933.25
2023-02-03T10:20:09.282Z,98924.19
2023-02-03T10:22:48.125Z,98911.53
2023-02-03T10:25:14.661Z,98910.56
2023-02-03T10:27:43.828Z,98909.72
2023-02-03T10:30:21.025Z,98902.31
2023-02-03T10:33:11.024Z,98899.50
2023-02-03T10:35:57.426Z,98889.66
2023-02-03T10:38:41.400Z,98892.22
2023-02-03T10:41:08.579Z,98890.13
2023-02-03T10:43:48.599Z,98880.03
2023-02-03T10:46:16.606Z,98878.06
2023-02-03T10:48:43.613Z,98879.91
2023-02-03T10:51:23.440Z,98864.88
2023-02-03T10:53:53.299Z,98863.75
2023-02-03T10:56:27.034Z,98856.47
2023-02-03T10:58:56.655Z,98852.81
2023-02-03T11:01:26.738Z,98852.13
2023-02-03T11:04:00.135Z,98851.88
2023-02-03T11:06:28.248Z,98851.88
2023-02-03T11:08:55.115Z,98850.63
2023-02-03T11:11:29.016Z,98834.91
2023-02-03T11:14:03.065Z,98827.75
2023-02-03T11:16:34.244Z,98830.13
2023-02-03T11:19:02.771Z,98831.13
2023-02-03T11:21:33.818Z,98826.50
2023-02-03T11:24:21.032Z,98831.84
2023-02-03T11:27:07.354Z,98834.53
2023-02-03T11:29:37.454Z,98811.59
2023-02-03T11:32:30.256Z,98803.31
2023-02-03T11:35:23.538Z,98826.22
2023-02-03T11:37:54.861Z,98849.56
2023-02-03T11:40:21.421Z,98838.19
2023-02-03T11:42:51.148Z,98820.34
2023-02-03T11:45:17.677Z,98812.31
2023-02-03T11:47:46.663Z,98804.88
2023-02-03T11:50:18.785Z,98790.16
2023-02-03T11:53:03.592Z,98786.63
2023-02-03T11:55:40.787Z,98775.94
2023-02-03T11:58:38.186Z,98748.16
2023-02-03T12:01:36.092Z,98731.28
2023-02-03T12:04:21.418Z,98720.47
2023-02-03T12:07:06.645Z,98708.66
2023-02-03T12:09:46.378Z,98684.19
2023-02-03T12:12:26.427Z,98708.81
2023-02-03T12:15:00.833Z,98731.03
2023-02-03T12:17:54.055Z,98719.19
2023-02-03T12:20:37.340Z,98735.91
2023-02-03T12:23:23.693Z,98735.66
2023-02-03T12:26:03.958Z,98724.41
2023-02-03T12:28:44.616Z,98737.06
2023-02-03T12:31:15.645Z,98733.25
2023-02-03T12:33:59.682Z,98709.63
2023-02-03T12:36:34.035Z,98719.06
2023-02-03T12:39:09.240Z,98726.78
2023-02-03T12:41:41.843Z,98713.03
2023-02-03T12:44:35.445Z,98708.06
2023-02-03T12:47:12.521Z,98705.28
2023-02-03T12:49:59.567Z,98702.31
2023-02-03T12:52:41.326Z,98700.34
2023-02-03T12:55:41.959Z,98686.84
2023-02-03T12:58:29.672Z,98702.56
2023-02-03T13:01:12.774Z,98727.59
2023-02-03T13:03:46.829Z,98733.38
2023-02-03T13:06:39.583Z,98769.69
2023-02-03T13:09:19.859Z,98780.78
2023-02-03T13:12:05.172Z,98774.88
2023-02-03T13:14:42.072Z,98810.75
2023-02-03T13:17:17.178Z,98776.97
2023-02-03T13:19:49.573Z,98801.88
2023-02-03T13:22:17.507Z,98793.69
2023-02-03T13:24:50.029Z,98801.09
2023-02-03T13:27:35.333Z,98823.44
2023-02-03T13:30:30.023Z,98799.81
2023-02-03T13:33:22.929Z,98809.94
2023-02-03T13:36:01.626Z,98821.56
2023-02-03T13:38:39.377Z,98808.63
2023-02-03T13:41:28.540Z,98808.47
2023-02-03T13:43:57.682Z,98780.22
2023-02-03T13:46:34.046Z,98807.59
2023-02-03T13:49:04.048Z,98819.69
2023-02-03T13:51:43.462Z,98818.47
2023-02-03T13:54:35.156Z,98815.50
2023-02-03T13:57:19.699Z,98818.75
2023-02-03T13:59:46.822Z,98826.38
2023-02-03T14:02:19.214Z,98829.44
2023-02-03T14:04:45.926Z,98822.84
2023-02-03T14:07:38.653Z,98825.94
2023-02-03T14:10:14.081Z,98832.91
2023-02-03T14:12:49.849Z,98838.25
2023-02-03T14:15:26.124Z,98855.84
2023-02-03T14:17:52.885Z,98848.94
2023-02-03T14:20:25.605Z,98843.47
2023-02-03T14:23:07.646Z,98850.19
2023-02-03T14:25:42.247Z,98844.16
2023-02-03T14:28:16.173Z,98869.31
2023-02-03T14:31:10.496Z,98864.09
2023-02-03T14:33:49.052Z,98845.13
2023-02-03T14:36:27.846Z,98833.34
2023-02-03T14:38:56.356Z,98855.25
2023-02-03T14:42:09.365Z,98862.69
2023-02-03T14:44:57.520Z,98863.78
2023-02-03T14:47:51.863Z,98868.03
2023-02-03T14:50:25.198Z,98867.34
2023-02-03T14:52:57.796Z,98869.03
2023-02-03T14:55:30.582Z,98892.31
2023-02-03T14:58:03.927Z,98895.50
2023-02-03T15:00:34.158Z,98892.00
2023-02-03T15:03:07.529Z,98879.75
2023-02-03T15:05:40.832Z,98891.56
2023-02-03T15:08:35.737Z,98900.41
2023-02-03T15:11:31.724Z,98917.25
2023-02-03T15:14:22.480Z,98936.84
2023-02-03T15:16:52.925Z,98921.09
2023-02-03T15:19:23.777Z,98921.34
2023-02-03T15:21:50.524Z,98915.34
2023-02-03T15:24:21.405Z,98934.28
2023-02-03T15:26:53.542Z,98939.13
2023-02-03T15:29:28.040Z,98946.72
2023-02-03T15:32:02.771Z,98944.94
2023-02-03T15:34:36.064Z,98946.13
2023-02-03T15:37:08.877Z,98936.41
2023-02-03T15:39:46.090Z,98948.59
2023-02-03T15:42:28.715Z,98946.75
2023-02-03T15:45:41.750Z,98947.13
2023-02-03T15:48:20.522Z,98947.94
2023-02-03T15:51:22.505Z,98939.75
2023-02-03T15:54:03.631Z,98952.69
2023-02-03T15:56:37.684Z,98954.72
2023-02-03T15:59:06.200Z,98948.63
2023-02-03T16:01:33.222Z,98956.63
2023-02-03T16:04:00.374Z,98963.78
2023-02-03T16:06:39.911Z,98975.00
2023-02-03T16:09:25.391Z,98964.31
2023-02-03T16:12:22.431Z,98973.03
2023-02-03T16:14:49.403Z,98978.84
2023-02-03T16:17:30.527Z,98983.31
2023-02-03T16:20:12.414Z,98986.69
2023-02-03T16:22:45.186Z,98986.56
2023-02-03T16:25:25.822Z,98973.44
2023-02-03T16:28:36.243Z,98983.13
2023-02-03T16:31:35.808Z,98988.72
2023-02-03T16:34:39.154Z,98996.94
2023-02-03T16:37:44.985Z,98996.09
2023-02-03T16:40:36.342Z,98992.13
2023-02-03T16:43:24.290Z,98997.78
2023-02-03T16:46:15.837Z,99001.16
2023-02-03T16:49:02.677Z,99002.41
2023-02-03T16:51:44.067Z,99008.31
2023-02-03T16:54:14.579Z,98987.41
2023-02-03T16:56:42.533Z,98998.09
2023-02-03T16:59:10.841Z,99014.25
2023-02-03T17:01:39.254Z,99006.47
2023-02-03T17:04:08.740Z,99029.28
2023-02-03T17:06:39.794Z,99027.59
2023-02-03T17:09:08.991Z,99035.34
2023-02-03T17:11:37.145Z,99031.31
2023-02-03T17:14:05.377Z,99027.06
2023-02-03T17:16:34.153Z,99027.91
2023-02-03T17:19:02.578Z,99049.41
2023-02-03T17:21:31.271Z,99041.78
2023-02-03T17:24:00.292Z,99041.41
2023-02-03T17:26:28.455Z,99041.41
2023-02-03T17:28:56.132Z,99043.75
2023-02-03T17:31:23.713Z,99050.91
2023-02-03T17:33:52.469Z,99048.09
2023-02-03T17:36:22.008Z,99047.97
2023-02-03T17:55:18.866Z,99045.38
2023-02-03T17:57:45.434Z,99055.44
2023-02-03T18:00:12.407Z,99056.56
2023-02-03T18:02:39.648Z,99051.94
2023-02-03T18:05:07.466Z,99065.41
2023-02-03T18:07:35.017Z,99068.41
2023-02-03T18:10:02.760Z,99078.50
2023-02-03T18:12:31.019Z,99074.59
2023-02-03T18:14:58.753Z,99106.91
2023-02-03T18:17:27.631Z,99093.56
2023-02-03T18:19:56.450Z,99101.81
2023-02-03T18:22:24.190Z,99093.09
2023-02-03T18:24:52.535Z,99122.19
2023-02-03T18:27:20.582Z,99122.91
2023-02-03T18:29:49.146Z,99104.47
2023-02-03T18:32:17.679Z,99115.44
2023-02-03T18:34:45.490Z,99113.47
2023-02-03T18:37:14.379Z,99119.19
2023-02-03T18:39:42.062Z,99122.00
2023-02-03T18:42:09.861Z,99125.63
2023-02-03T18:44:37.027Z,99114.97
2023-02-03T18:47:07.549Z,99126.72
2023-02-03T18:49:36.153Z,99117.16
2023-02-03T18:52:02.848Z,99121.53
2023-02-03T18:54:29.678Z,99127.09
2023-02-03T18:56:58.935Z,99146.75
2023-02-03T18:59:26.109Z,99128.97
2023-02-03T19:01:52.853Z,99133.34
2023-02-03T19:04:19.475Z,99133.34
2023-02-03T19:06:46.768Z,99121.31
2023-02-03T19:09:16.094Z,99147.53
2023-02-03T19:11:43.172Z,99142.88
2023-02-03T19:14:09.798Z,99144.22
2023-02-03T19:16:36.433Z,99144.06
2023-02-03T19:19:03.042Z,99135.72
2023-02-03T19:21:29.732Z,99143.09
2023-02-03T19:23:56.349Z,99130.13
2023-02-03T19:26:22.977Z,99140.53
2023-02-03T19:28:49.652Z,99136.38
2023-02-03T19:31:16.589Z,99115.03
2023-02-03T19:33:43.542Z,99132.16
2023-02-03T19:36:11.557Z,99129.72
2023-02-03T19:38:38.457Z,99142.19
2023-02-03T19:41:07.123Z,99138.19
2023-02-03T19:43:33.936Z,99156.31
2023-02-03T19:46:00.633Z,99145.66
2023-02-03T19:48:27.257Z,99154.00
2023-02-03T19:50:53.948Z,99156.81
2023-02-03T19:53:21.543Z,99160.81
2023-02-03T19:55:48.309Z,99163.09
2023-02-03T19:58:14.919Z,99167.38
2023-02-03T20:00:42.885Z,99161.28
2023-02-03T20:03:10.114Z,99166.38
2023-02-03T20:05:37.101Z,99158.38
2023-02-03T20:08:04.366Z,99155.59
2023-02-03T20:10:32.527Z,99172.06
2023-02-03T20:12:59.432Z,99169.75
2023-02-03T20:15:26.866Z,99172.69
2023-02-03T20:17:53.785Z,99184.56
2023-02-03T20:20:20.976Z,99171.09
2023-02-03T20:22:48.531Z,99182.88
2023-02-03T20:25:15.724Z,99175.94
2023-02-03T20:27:42.301Z,99174.38
2023-02-03T20:30:09.705Z,99182.50
2023-02-03T20:32:37.057Z,99178.38
2023-02-03T20:35:04.865Z,99178.50
2023-02-03T20:37:32.295Z,99183.19
2023-02-03T20:39:59.021Z,99183.56
2023-02-03T20:42:25.646Z,99183.06
2023-02-03T20:44:52.622Z,99186.91
2023-02-03T20:47:19.300Z,99180.03
2023-02-03T20:49:47.890Z,99189.47
2023-02-03T20:52:17.110Z,99176.16
2023-02-03T20:54:44.399Z,99185.44
2023-02-03T20:57:16.952Z,99182.06
2023-02-03T20:59:46.988Z,99179.31
2023-02-03T21:02:23.098Z,99184.84
2023-02-03T21:05:00.158Z,99189.97
2023-02-03T21:07:30.550Z,99190.69
2023-02-03T21:09:58.921Z,99193.22
2023-02-03T21:12:28.159Z,99211.38
2023-02-03T21:14:55.165Z,99209.31
2023-02-03T21:17:26.886Z,99211.38
2023-02-03T21:19:54.916Z,99202.03
2023-02-03T21:22:24.533Z,99204.94
2023-02-03T21:24:52.318Z,99194.63
2023-02-03T21:27:34.039Z,99203.09
2023-02-03T21:30:02.698Z,99215.31
2023-02-03T21:32:38.336Z,99217.59
2023-02-03T21:35:31.873Z,99216.28
2023-02-03T21:38:02.470Z,99204.06
2023-02-03T21:40:30.891Z,99213.63
2023-02-03T21:42:58.462Z,99223.63
2023-02-03T21:45:33.694Z,99231.53
2023-02-03T21:48:00.573Z,99237.72
2023-02-03T21:50:34.437Z,99236.22
2023-02-03T21:53:10.285Z,99232.72
2023-02-03T21:55:38.966Z,99236.94
2023-02-03T21:58:32.424Z,99239.84
2023-02-03T22:01:00.593Z,99250.50
2023-02-03T22:03:35.946Z,99254.47
2023-02-03T22:06:08.610Z,99264.78
2023-02-03T22:08:40.844Z,99261.28
2023-02-03T22:11:07.824Z,99279.16
2023-02-03T22:13:34.980Z,99277.59
2023-02-03T22:16:02.309Z,99280.13
2023-02-03T22:18:28.871Z,99285.78
2023-02-03T22:20:55.762Z,99292.22
2023-02-03T22:23:22.322Z,99283.72
2023-02-03T22:25:49.380Z,99287.84
2023-02-03T22:28:17.567Z,99299.81
2023-02-03T22:30:44.289Z,99284.25
2023-02-03T22:33:11.128Z,99301.31
2023-02-03T22:35:37.938Z,99295.00
2023-02-03T22:38:04.605Z,99295.00
2023-02-03T22:40:31.577Z,99303.13
2023-02-03T22:42:58.349Z,99305.91
2023-02-03T22:45:25.192Z,99308.13
2023-02-03T22:47:51.804Z,99299.50
2023-02-03T22:50:24.607Z,99307.34
2023-02-03T22:52:57.692Z,99302.78
2023-02-03T22:55:24.361Z,99316.31
2023-02-03T22:57:52.448Z,99310.47
2023-02-03T23:00:21.876Z,99309.16
2023-02-03T23:02:50.043Z,99316.53
2023-02-03T23:05:17.631Z,99316.44
2023-02-03T23:07:45.367Z,99325.13
2023-02-03T23:10:17.347Z,99325.13
2023-02-03T23:12:44.474Z,99328.97
2023-02-03T23:15:11.609Z,99323.66
2023-02-03T23:17:38.833Z,99318.97
2023-02-03T23:20:07.376Z,99333.75
2023-02-03T23:22:33.978Z,99326.63
2023-02-03T23:25:01.089Z,99332.91
2023-02-03T23:27:28.075Z,99324.28
2023-02-03T23:29:54.710Z,99329.50
2023-02-03T23:32:21.289Z,99320.47
2023-02-03T23:35:06.684Z,99334.72
2023-02-03T23:37:33.325Z,99338.84
2023-02-03T23:40:00.367Z,99349.41
2023-02-03T23:42:27.358Z,99362.19
2023-02-03T23:44:54.044Z,99379.66
2023-02-03T23:47:20.668Z,99404.78
2023-02-03T23:49:47.330Z,99426.06
2023-02-03T23:52:14.011Z,99450.91
2023-02-03T23:54:40.643Z,99453.00
2023-02-03T23:57:07.330Z,99458.81
2023-02-03T23:59:33.952Z,99458.16
